METAR Data
IDs: Format: Raw Decoded Include TAF

Data at: 1429 UTC 21 May 2019

KSLR 211415Z AUTO 16016G23KT 7SM VCTS SCT037 SCT050 SCT065 27/21 A2964 RMK AO2 LTG DSNT SW THRU N T02680206
KSLR 211355Z AUTO 16013G24KT 10SM SCT060 SCT090 SCT110 26/21 A2965 RMK AO2 LTG DSNT N AND W T02640206
KSLR 211335Z AUTO 17014G22KT 7SM SCT060 SCT080 BKN090 26/21 A2966 RMK AO2 LTG DSNT W THRU N T02610205
KSLR 211315Z AUTO 17012G17KT 1SM HZ BKN038 BKN060 OVC075 26/20 A2967 RMK AO2 T02570203
KSLR 211255Z AUTO 17012G15KT 10SM SCT080 BKN090 26/20 A2967 RMK AO2 T02550202
KSLR 211235Z AUTO 17011G15KT 10SM BKN090 25/20 A2968 RMK AO2 T02540202
KSLR 211215Z AUTO 17012KT 10SM SCT038 BKN075 OVC090 25/20 A2968 RMK AO2 T02540202
KSLR 211155Z AUTO 17009KT 10SM SCT038 BKN060 OVC070 26/20 A2968 RMK AO2 LTG DSNT NW 7//// T02550202 10260 20253
KSLR 211135Z AUTO 17009KT 10SM SCT036 BKN044 OVC070 25/20 A2968 RMK AO2 T02530202
KSLR 211115Z AUTO 17007G14KT 10SM BKN033 OVC043 26/20 A2968 RMK AO2 LTG DSNT NW T02550203
KSLR 211055Z AUTO 19005KT 10SM SCT029 BKN035 OVC041 25/21 A2968 RMK AO2 T02530205
KSLR 211035Z AUTO 22007KT 10SM OVC029 25/20 A2969 RMK AO2 T02540203
KSLR 211015Z AUTO 21009G16KT 10SM OVC031 26/20 A2966 RMK AO2 T02550202
KSLR 210955Z AUTO 16012G20KT 10SM OVC031 26/20 A2960 RMK AO2 T02550201
KSLR 210935Z AUTO 16012G19KT 10SM OVC031 26/20 A2961 RMK AO2 T02550201
KSLR 210915Z AUTO 16013G16KT 10SM BKN031 OVC038 26/20 A2961 RMK AO2 T02550201
KSLR 210855Z AUTO 16011G20KT 10SM OVC031 26/20 A2961 RMK AO2 T02560202
KSLR 210835Z AUTO 17014G20KT 10SM BKN031 OVC037 26/20 A2962 RMK AO2 T02560202
KSLR 210815Z AUTO 16011G21KT 10SM BKN031 OVC039 26/20 A2961 RMK AO2 T02570201
KSLR 210755Z AUTO 16011G17KT 10SM OVC031 26/20 A2962 RMK AO2 T02570202
KSLR 210735Z AUTO 16013G21KT 10SM BKN031 OVC038 26/20 A2963 RMK AO2 T02570202
KSLR 210715Z AUTO 15010G22KT 10SM OVC031 26/20 A2962 RMK AO2 T02580202
KSLR 210655Z AUTO 16013G19KT 10SM OVC033 26/20 A2963 RMK AO2 T02580201
KSLR 210635Z AUTO 16013G18KT 10SM OVC033 26/20 A2963 RMK AO2 T02580200
KSLR 210615Z AUTO 15013G22KT 10SM OVC035 26/20 A2965 RMK AO2 T02580200
KSLR 210555Z AUTO 16011G18KT 10SM BKN035 OVC040 26/20 A2966 RMK AO2 T02600200 10296 20260
KSLR 210535Z AUTO 18012G25KT 10SM BKN035 26/20 A2967 RMK AO2 T02600198
KSLR 210515Z AUTO 17015G24KT 10SM SCT036 26/20 A2966 RMK AO2 T02600197
KSLR 210455Z AUTO 16016G22KT 10SM SCT034 26/20 A2965 RMK AO2 T02600198
KSLR 210435Z AUTO 16016G23KT 10SM SCT034 26/20 A2966 RMK AO2 T02620198
KSLR 210415Z AUTO 17015G23KT 10SM BKN036 26/20 A2967 RMK AO2 T02630200
KSLR 210355Z AUTO 16015G20KT 10SM BKN036 26/20 A2967 RMK AO2 T02630201
KSLR 210340Z AUTO 16011G17KT 10SM BKN036 27/20 A2968 RMK AO2 T02650203
KSLR 210315Z AUTO 16011G18KT 10SM BKN038 27/20 A2970 RMK AO2 T02680201
KSLR 210255Z AUTO 16009G20KT 10SM BKN038 27/20 A2971 RMK AO2 T02710201
KSLR 210235Z AUTO 16009KT 10SM BKN038 27/20 A2971 RMK AO2 T02720201
KSLR 210215Z AUTO 16012G15KT 10SM SCT038 27/20 A2969 RMK AO2 T02740200
KSLR 210155Z AUTO 16011G22KT 10SM CLR 28/20 A2968 RMK AO2 T02750198
KSLR 210135Z AUTO 16015G20KT 10SM CLR 28/20 A2967 RMK AO2 T02760203
KSLR 210115Z AUTO 15010G21KT 10SM CLR 28/21 A2966 RMK AO2 T02800205
KSLR 210055Z AUTO 16014G21KT 10SM CLR 29/21 A2965 RMK AO2 T02850206
KSLR 210035Z AUTO 15010G16KT 10SM CLR 29/21 A2965 RMK AO2 T02920210
KSLR 210015Z AUTO 16015G27KT 10SM CLR 30/21 A2965 RMK AO2 T02960205
KSLR 202355Z AUTO 16018G25KT 10SM CLR 30/21 A2966 RMK AO2 6//// T03000208
KSLR 202335Z AUTO 16014G23KT 10SM SCT050 SCT060 30/21 A2968 RMK AO2 T03040213
KSLR 202315Z AUTO 15016G20KT 10SM SCT049 SCT060 31/22 A2969 RMK AO2 T03070216
KSLR 202255Z AUTO 16016G19KT 10SM SCT038 SCT047 BKN050 31/22 A2970 RMK AO2 T03080217
KSLR 202235Z AUTO 17016G23KT 10SM SCT038 SCT044 BKN050 32/22 A2972 RMK AO2 T03150222
KSLR 202215Z AUTO 16013G22KT 10SM SCT038 SCT070 SCT080 32/23 A2972 RMK AO2 T03150226
KSLR 202155Z AUTO 16015G22KT 10SM SCT033 SCT070 SCT080 31/23 A2973 RMK AO2 T03130227
KSLR 202135Z AUTO 16011G21KT 10SM SCT033 SCT044 SCT080 32/23 A2975 RMK AO2 T03150227
KSLR 202115Z AUTO 16013G21KT 10SM SCT031 SCT037 SCT044 31/23 A2976 RMK AO2 T03110229
KSLR 202055Z AUTO 17014G21KT 10SM SCT030 BKN038 BKN065 31/23 A2977 RMK AO2 6//// T03100232
KSLR 202035Z AUTO 17013G22KT 10SM SCT028 BKN036 BKN060 31/23 A2979 RMK AO2 T03070227
KSLR 202015Z AUTO 15016G24KT 10SM SCT028 SCT042 BKN048 31/23 A2979 RMK AO2 T03060233
KSLR 201955Z AUTO 15013G22KT 10SM SCT024 SCT032 BKN041 30/24 A2980 RMK AO2 T03010236
KSLR 201935Z AUTO 16011G14KT 10SM SCT020 BKN026 BKN040 30/24 A2982 RMK AO2 T02950235
KSLR 201915Z AUTO 15014G19KT 10SM BKN018 OVC025 30/24 A2983 RMK AO2 T02950237
KSLR 201855Z AUTO 15008KT 10SM BKN016 OVC022 29/24 A2984 RMK AO2 T02870239
KSLR 201835Z AUTO 13012G16KT 10SM BKN012 OVC028 28/24 A2985 RMK AO2 LTG DSNT N T02810241
KSLR 201815Z AUTO 13011KT 10SM OVC010 27/26 A2986 RMK AO2 T02700257
KSLR 201755Z AUTO 14007KT 5SM -RA BKN008 OVC013 25/24 A2988 RMK AO2 T02470237 10251 20220
KSLR 201735Z AUTO 15007KT 7SM OVC008 25/24 A2989 RMK AO2 T02460235
KSLR 201715Z AUTO 14008G15KT 10SM OVC006 25/24 A2989 RMK AO2 T02470236
KSLR 201655Z AUTO 13008KT 7SM OVC006 25/24 A2989 RMK AO2 T02500241
KSLR 201635Z AUTO 13010G14KT 4SM BR OVC008 24/24 A2990 RMK AO2 T02430235
KSLR 201615Z AUTO 13009KT 3SM BR BKN008 OVC013 24/23 A2990 RMK AO2 T02420233
KSLR 201555Z AUTO 12013KT 7SM BKN008 BKN015 OVC037 25/24 A2991 RMK AO2 T02470240
KSLR 201535Z AUTO 12008KT 7SM BKN006 OVC036 25/24 A2991 RMK AO2 T02450240
KSLR 201515Z AUTO 12007KT 5SM BR OVC006 24/23 A2993 RMK AO2 T02360232
KSLR 201455Z AUTO 13009KT 2 1/2SM BR OVC006 24/23 A2993 RMK AO2 VIS 2V4 T02350231
KSLR 201435Z AUTO 13007KT 2 1/2SM BR BKN006 OVC010 24/23 A2994 RMK AO2 T02350230
KSLR 201415Z AUTO 14005KT 2 1/2SM BR OVC008 24/23 A2994 RMK AO2 T02350230
KSLR 201355Z AUTO 14007KT 2 1/2SM BR OVC008 24/23 A2994 RMK AO2 T02350230
KSLR 201335Z AUTO 13005KT 5SM BR SCT005 BKN008 OVC014 23/23 A2994 RMK AO2 T02320228
KSLR 201315Z AUTO 12004KT 3SM BR BKN005 OVC018 23/23 A2993 RMK AO2 T02300226
KSLR 201255Z AUTO 00000KT 2SM BR OVC003 23/22 A2993 RMK AO2 T02250222
KSLR 201235Z AUTO 14003KT 1 1/2SM BR OVC003 22/22 A2994 RMK AO2 T02240221
KSLR 201215Z AUTO 15005KT 2 1/2SM BR OVC003 22/22 A2994 RMK AO2 T02220218
KSLR 201155Z AUTO 14007KT 2 1/2SM BR OVC003 22/22 A2992 RMK AO2 T02200215 10220 20198
KSLR 201135Z AUTO 13007KT 4SM BR OVC005 22/21 A2991 RMK AO2 T02170212
KSLR 201115Z AUTO 12005KT 4SM BR OVC005 21/21 A2991 RMK AO2 T02120205
KSLR 201055Z AUTO 12005KT 5SM BR SCT007 21/20 A2990 RMK AO2 T02070197
KSLR 201035Z AUTO 12005KT 7SM CLR 21/20 A2991 RMK AO2 T02050195
KSLR 201015Z AUTO 11005KT 7SM CLR 20/19 A2991 RMK AO2 T02030190
KSLR 200955Z AUTO 11005KT 7SM SCT021 SCT025 20/19 A2991 RMK AO2 T02000188
KSLR 200935Z AUTO 11004KT 7SM SCT019 20/19 A2991 RMK AO2 T01980190
KSLR 200915Z AUTO 10004KT 10SM CLR 20/19 A2991 RMK AO2 T01980187
KSLR 200855Z AUTO 00000KT 10SM CLR 20/19 A2990 RMK AO2 T02000186
KSLR 200835Z AUTO 00000KT 10SM CLR 20/18 A2990 RMK AO2 T02000184
KSLR 200815Z AUTO 00000KT 10SM CLR 20/18 A2990 RMK AO2 T01980178
KSLR 200755Z AUTO 11003KT 10SM CLR 20/18 A2991 RMK AO2 T02000178
KSLR 200735Z AUTO 00000KT 10SM CLR 20/18 A2991 RMK AO2 T02000175
KSLR 200715Z AUTO 00000KT 10SM CLR 20/17 A2991 RMK AO2 T02000172
KSLR 200655Z AUTO 00000KT 10SM CLR 20/18 A2991 RMK AO2 T02020175
KSLR 200635Z AUTO 10003KT 10SM CLR 20/18 A2992 RMK AO2 T02030175
KSLR 200615Z AUTO 09003KT 10SM CLR 21/17 A2992 RMK AO2 T02050173
KSLR 200555Z AUTO 11003KT 10SM CLR 21/17 A2993 RMK AO2 T02050171 10295 20204
KSLR 200535Z AUTO 11004KT 10SM SCT046 21/17 A2994 RMK AO2 T02050166
KSLR 200515Z AUTO 00000KT 10SM SCT046 21/17 A2995 RMK AO2 T02060172
KSLR 200455Z AUTO 08003KT 10SM CLR 21/16 A2995 RMK AO2 T02060164
KSLR 200435Z AUTO 00000KT 10SM CLR 21/17 A2995 RMK AO2 T02080168
KSLR 200415Z AUTO 09004KT 10SM CLR 21/17 A2994 RMK AO2 T02100165
KSLR 200355Z AUTO 10004KT 10SM CLR 21/16 A2994 RMK AO2 T02130158
KSLR 200335Z AUTO 10003KT 10SM CLR 22/15 A2994 RMK AO2 T02150154
KSLR 200315Z AUTO 00000KT 10SM CLR 22/15 A2993 RMK AO2 T02170152
KSLR 200255Z AUTO 00000KT 10SM CLR 22/16 A2992 RMK AO2 T02220155
KSLR 200235Z AUTO 03004KT 10SM CLR 23/15 A2991 RMK AO2 T02250153